Main page
METAR-TAF:

METAR-TAF

Airports :

Bournemouth Airport

Bournemouth, England

latitude: 50-47N, longitude: 001-50W, elevation: 11 m

Current weather observation

The report was made 11 minutes ago, at 16:20 UTC
Wind 11 kt from the East/Southeast
Temperature 10°C
Humidity 82%
Pressure 990 hPa
Visibility 10 km or more
Scattered clouds at a height of 1800 ft

METAR: EGHH 221620Z 11011KT 9999 SCT018 10/07 Q0990

Time: 16:31 (16:31 UTC)

Forecast

The report was made 2 hours and 32 minutes ago, at 13:59 UTC
Forecast valid from 22 at 15 UTC to 22 at 24 UTC
Wind 12 kt from the Southeast
Visibility 10 km or more
Scattered clouds at a height of 4000 ft
Temporary
from 22 at 18 UTC to 22 at 24 UTC
Visibility: 7000 m
rain
Probability 30% :
Temporary
from 22 at 21 UTC to 22 at 24 UTC
Visibility: 4000 m
Broken clouds at a height of 900 ft
rain, drizzle

TAF: EGHH 221359Z 2215/2224 13012KT 9999 SCT040 TEMPO 2218/2224 7000 RA PROB30 TEMPO 2221/2224 4000 RADZ BKN009

Weather observations and forecasts of more than 4000 airports (METAR and TAF reports).

The available stations are represented by yellow and red dots on the map.

Hover mouse over dot to see the name of the station.

Then click to see weather observations and forecasts.

To change the map : click on the green buttons with a black cross to zoom in, on the green button with a dash to zoom out, or on the green arrows for adjacent maps.


METAR-TAF: